Time,TemperatureF,DewpointF,PressureIn,WindDirection,WindDirectionDegrees,WindSpeedMPH,WindSpeedGustMPH,Humidity,HourlyPrecipIn,Conditions,Clouds,dailyrainin,SoftwareType,DateUTC
2013-03-07 00:01:00,31.3,26.8,30.26,NNW,343,1.0,6.0,83,0.00,,SKC,0.00,VWS V13.00,2013-03-07 06:01:00,
2013-03-07 00:06:00,31.4,26.5,30.26,North,5,4.0,6.0,82,0.00,,SKC,0.00,VWS V13.00,2013-03-07 06:06:00,
2013-03-07 00:11:00,31.5,26.6,30.26,NNE,29,6.0,6.0,82,0.00,,SKC,0.00,VWS V13.00,2013-03-07 06:11:00,
2013-03-07 00:16:00,31.6,26.8,30.26,North,5,2.0,8.0,82,0.00,,SKC,0.00,VWS V13.00,2013-03-07 06:16:00,
2013-03-07 00:21:00,31.5,26.6,30.26,NNW,343,2.0,8.0,82,0.00,,SKC,0.00,VWS V13.00,2013-03-07 06:21:00,
2013-03-07 00:26:00,31.4,26.5,30.26,North,360,5.0,9.0,82,0.00,,SKC,0.00,VWS V13.00,2013-03-07 06:26:00,
2013-03-07 00:31:00,31.2,26.4,30.26,North,11,1.0,9.0,82,0.00,,SKC,0.00,VWS V13.00,2013-03-07 06:31:00,
2013-03-07 00:36:00,30.9,26.4,30.26,NNE,18,4.0,6.0,83,0.00,,SKC,0.00,VWS V13.00,2013-03-07 06:36:00,
2013-03-07 00:41:00,30.7,26.2,30.26,NNE,23,2.0,6.0,83,0.00,,SKC,0.00,VWS V13.00,2013-03-07 06:41:00,
2013-03-07 00:46:00,30.6,26.1,30.26,North,5,2.0,6.0,83,0.00,,SKC,0.00,VWS V13.00,2013-03-07 06:46:00,
2013-03-07 00:51:00,30.6,26.1,30.26,NNE,22,2.0,6.0,83,0.00,,SKC,0.00,VWS V13.00,2013-03-07 06:51:00,
2013-03-07 00:56:00,30.5,26.2,30.26,NNE,33,4.0,6.0,84,0.00,,SKC,0.00,VWS V13.00,2013-03-07 06:56:00,
2013-03-07 01:00:00,30.5,26.2,30.26,North,11,3.0,6.0,84,0.00,,SKC,0.00,VWS V13.00,2013-03-07 07:00:00,
2013-03-07 01:05:00,30.5,26.2,30.26,North,9,5.0,6.0,84,0.00,,SKC,0.00,VWS V13.00,2013-03-07 07:05:00,
2013-03-07 01:10:00,30.6,26.1,30.26,NNE,19,4.0,6.0,83,0.00,,SKC,0.00,VWS V13.00,2013-03-07 07:10:00,
2013-03-07 01:15:00,30.6,26.1,30.26,NNE,20,5.0,6.0,83,0.00,,SKC,0.00,VWS V13.00,2013-03-07 07:15:00,
2013-03-07 01:20:00,30.7,26.5,30.26,NE,39,5.0,6.0,84,0.00,,SKC,0.00,VWS V13.00,2013-03-07 07:20:00,
2013-03-07 01:25:00,30.6,26.4,30.26,NE,43,2.0,6.0,84,0.00,,SKC,0.00,VWS V13.00,2013-03-07 07:25:00,
2013-03-07 01:30:00,30.5,26.0,30.26,NNE,17,1.0,6.0,83,0.00,,SKC,0.00,VWS V13.00,2013-03-07 07:30:00,
2013-03-07 01:35:00,30.4,26.1,30.25,NNE,19,1.0,4.0,84,0.00,,SKC,0.00,VWS V13.00,2013-03-07 07:35:00,
2013-03-07 01:40:00,30.3,26.1,30.25,NNE,28,1.0,4.0,84,0.00,,SKC,0.00,VWS V13.00,2013-03-07 07:40:00,
2013-03-07 01:46:00,30.0,25.8,30.26,NNE,19,1.0,4.0,84,0.00,,SKC,0.00,VWS V13.00,2013-03-07 07:46:00,
2013-03-07 01:51:00,29.7,25.8,30.26,NNE,19,2.0,4.0,85,0.00,,SKC,0.00,VWS V13.00,2013-03-07 07:51:00,
2013-03-07 01:56:00,29.6,25.9,30.26,NNW,347,2.0,5.0,86,0.00,,SKC,0.00,VWS V13.00,2013-03-07 07:56:00,
2013-03-07 02:01:00,29.5,25.8,30.26,NNW,342,2.0,5.0,86,0.00,,SKC,0.00,VWS V13.00,2013-03-07 08:01:00,
2013-03-07 02:06:00,29.4,25.7,30.27,NW,322,1.0,5.0,86,0.00,,SKC,0.00,VWS V13.00,2013-03-07 08:06:00,
2013-03-07 02:11:00,29.4,25.7,30.26,NNW,327,2.0,5.0,86,0.00,,SKC,0.00,VWS V13.00,2013-03-07 08:11:00,
2013-03-07 02:16:00,29.5,25.8,30.26,NNW,331,1.0,5.0,86,0.00,,SKC,0.00,VWS V13.00,2013-03-07 08:16:00,
2013-03-07 02:21:00,29.4,25.7,30.26,North,355,1.0,5.0,86,0.00,,SKC,0.00,VWS V13.00,2013-03-07 08:21:00,
2013-03-07 02:26:00,29.5,25.8,30.26,NW,321,2.0,5.0,86,0.00,,SKC,0.00,VWS V13.00,2013-03-07 08:26:00,
2013-03-07 02:31:00,29.6,25.9,30.26,NNW,346,2.0,6.0,86,0.00,,SKC,0.00,VWS V13.00,2013-03-07 08:31:00,
2013-03-07 02:36:00,29.7,26.0,30.26,North,360,2.0,4.0,86,0.00,,SKC,0.00,VWS V13.00,2013-03-07 08:36:00,
2013-03-07 02:41:00,29.6,25.9,30.26,NNE,12,0.0,4.0,86,0.00,,SKC,0.00,VWS V13.00,2013-03-07 08:41:00,
2013-03-07 02:46:00,29.5,25.8,30.25,NNE,18,2.0,5.0,86,0.00,,SKC,0.00,VWS V13.00,2013-03-07 08:46:00,
2013-03-07 02:51:00,29.3,25.6,30.26,NNW,346,1.0,5.0,86,0.00,,SKC,0.00,VWS V13.00,2013-03-07 08:51:00,
2013-03-07 02:56:00,29.2,25.5,30.26,NNW,339,2.0,5.0,86,0.00,,SKC,0.00,VWS V13.00,2013-03-07 08:56:00,
2013-03-07 03:01:00,29.1,25.7,30.26,North,349,2.0,5.0,87,0.00,,SKC,0.00,VWS V13.00,2013-03-07 09:01:00,
2013-03-07 03:06:00,29.0,25.6,30.26,NNE,22,2.0,2.0,87,0.00,,SKC,0.00,VWS V13.00,2013-03-07 09:06:00,
2013-03-07 03:11:00,28.8,25.4,30.26,North,5,1.0,3.0,87,0.00,,SKC,0.00,VWS V13.00,2013-03-07 09:11:00,
2013-03-07 03:16:00,28.7,25.6,30.26,NNE,33,1.0,4.0,88,0.00,,SKC,0.00,VWS V13.00,2013-03-07 09:16:00,
2013-03-07 03:21:00,28.5,25.1,30.26,NE,36,0.0,4.0,87,0.00,,SKC,0.00,VWS V13.00,2013-03-07 09:21:00,
2013-03-07 03:26:00,28.4,25.3,30.26,NE,36,0.0,4.0,88,0.00,,SKC,0.00,VWS V13.00,2013-03-07 09:26:00,
2013-03-07 03:31:00,28.4,25.6,30.26,ENE,58,4.0,4.0,89,0.00,,SKC,0.00,VWS V13.00,2013-03-07 09:31:00,
2013-03-07 03:36:00,28.3,25.5,30.26,NE,55,2.0,2.0,89,0.00,,SKC,0.00,VWS V13.00,2013-03-07 09:36:00,
2013-03-07 03:41:00,28.0,25.2,30.25,ENE,64,5.0,5.0,89,0.00,,SKC,0.00,VWS V13.00,2013-03-07 09:41:00,
2013-03-07 03:46:00,27.8,25.0,30.25,ENE,76,4.0,6.0,89,0.00,,SKC,0.00,VWS V13.00,2013-03-07 09:46:00,
2013-03-07 03:51:00,27.5,24.7,30.25,ENE,76,2.0,6.0,89,0.00,,SKC,0.00,VWS V13.00,2013-03-07 09:51:00,
2013-03-07 03:56:00,27.5,25.0,30.26,ENE,67,0.0,6.0,90,0.00,,SKC,0.00,VWS V13.00,2013-03-07 09:56:00,
2013-03-07 04:01:00,27.4,24.9,30.27,NE,50,0.0,6.0,90,0.00,,SKC,0.00,VWS V13.00,2013-03-07 10:01:00,
2013-03-07 04:06:00,27.4,25.1,30.27,NE,36,0.0,1.0,91,0.00,,SKC,0.00,VWS V13.00,2013-03-07 10:06:00,
2013-03-07 04:11:00,27.4,25.1,30.28,NE,36,0.0,1.0,91,0.00,,SKC,0.00,VWS V13.00,2013-03-07 10:11:00,
2013-03-07 04:16:00,27.5,25.2,30.28,NE,36,1.0,1.0,91,0.00,,SKC,0.00,VWS V13.00,2013-03-07 10:16:00,
2013-03-07 04:21:00,27.4,25.1,30.28,NE,36,0.0,1.0,91,0.00,,SKC,0.00,VWS V13.00,2013-03-07 10:21:00,
2013-03-07 04:26:00,27.4,25.1,30.28,NE,36,1.0,2.0,91,0.00,,SKC,0.00,VWS V13.00,2013-03-07 10:26:00,
2013-03-07 04:31:00,27.6,25.6,30.28,NE,36,1.0,2.0,92,0.00,,SKC,0.00,VWS V13.00,2013-03-07 10:31:00,
2013-03-07 04:36:00,27.9,25.6,30.29,NE,36,0.0,2.0,91,0.00,,SKC,0.00,VWS V13.00,2013-03-07 10:36:00,
2013-03-07 04:41:00,27.9,25.6,30.29,NE,36,0.0,2.0,91,0.00,,SKC,0.00,VWS V13.00,2013-03-07 10:41:00,
2013-03-07 04:46:00,27.9,25.6,30.28,NNE,29,0.0,2.0,91,0.00,,SKC,0.00,VWS V13.00,2013-03-07 10:46:00,
2013-03-07 04:51:00,27.9,25.4,30.28,NNE,29,0.0,2.0,90,0.00,,SKC,0.00,VWS V13.00,2013-03-07 10:51:00,
2013-03-07 04:56:00,27.8,25.2,30.28,NNE,29,0.0,2.0,90,0.00,,SKC,0.00,VWS V13.00,2013-03-07 10:56:00,
2013-03-07 05:01:00,27.7,25.4,30.28,NNE,29,1.0,2.0,91,0.00,,SKC,0.00,VWS V13.00,2013-03-07 11:01:00,
2013-03-07 05:06:00,27.6,25.3,30.28,NNE,28,2.0,2.0,91,0.00,,SKC,0.00,VWS V13.00,2013-03-07 11:06:00,
2013-03-07 05:11:00,27.7,25.4,30.29,North,355,2.0,5.0,91,0.00,,SKC,0.00,VWS V13.00,2013-03-07 11:11:00,
2013-03-07 05:16:00,27.9,25.6,30.29,North,360,1.0,5.0,91,0.00,,SKC,0.00,VWS V13.00,2013-03-07 11:16:00,
2013-03-07 05:21:00,27.9,25.6,30.30,North,360,2.0,5.0,91,0.00,,SKC,0.00,VWS V13.00,2013-03-07 11:21:00,
2013-03-07 05:26:00,27.9,25.4,30.30,NNE,17,4.0,5.0,90,0.00,,SKC,0.00,VWS V13.00,2013-03-07 11:26:00,
2013-03-07 05:31:00,28.0,25.5,30.30,NE,36,4.0,6.0,90,0.00,,SKC,0.00,VWS V13.00,2013-03-07 11:31:00,
2013-03-07 05:36:00,28.0,25.5,30.30,NNE,24,4.0,5.0,90,0.00,,SKC,0.00,VWS V13.00,2013-03-07 11:36:00,
2013-03-07 05:41:00,27.9,25.4,30.30,NNE,30,3.0,5.0,90,0.00,,SKC,0.00,VWS V13.00,2013-03-07 11:41:00,
2013-03-07 05:46:00,28.0,25.7,30.30,NE,44,5.0,6.0,91,0.00,,SKC,0.00,VWS V13.00,2013-03-07 11:46:00,
2013-03-07 05:51:00,27.8,25.5,30.30,NE,44,5.0,7.0,91,0.00,,SKC,0.00,VWS V13.00,2013-03-07 11:51:00,
2013-03-07 05:56:00,28.0,25.7,30.30,NE,42,5.0,7.0,91,0.00,,SKC,0.00,VWS V13.00,2013-03-07 11:56:00,
2013-03-07 06:01:00,28.1,25.8,30.30,NE,36,3.0,7.0,91,0.00,,SKC,0.00,VWS V13.00,2013-03-07 12:01:00,
2013-03-07 06:06:00,28.3,26.0,30.30,NNE,17,2.0,5.0,91,0.00,,SKC,0.00,VWS V13.00,2013-03-07 12:06:00,
2013-03-07 06:11:00,28.5,26.0,30.31,North,350,1.0,5.0,90,0.00,,SKC,0.00,VWS V13.00,2013-03-07 12:11:00,
2013-03-07 06:16:00,28.7,26.1,30.31,North,9,2.0,5.0,90,0.00,,SKC,0.00,VWS V13.00,2013-03-07 12:16:00,
2013-03-07 06:21:00,28.9,26.3,30.31,North,355,5.0,5.0,90,0.00,,SKC,0.00,VWS V13.00,2013-03-07 12:21:00,
2013-03-07 06:26:00,29.1,26.5,30.31,NNE,17,2.0,6.0,90,0.00,,SKC,0.00,VWS V13.00,2013-03-07 12:26:00,
2013-03-07 06:31:00,29.2,26.4,30.31,NNE,24,1.0,6.0,89,0.00,,SKC,0.00,VWS V13.00,2013-03-07 12:31:00,
2013-03-07 06:36:00,29.3,26.5,30.31,NNE,19,2.0,5.0,89,0.00,,SKC,0.00,VWS V13.00,2013-03-07 12:36:00,
2013-03-07 06:41:00,29.6,26.8,30.32,North,355,2.0,5.0,89,0.00,,SKC,0.00,VWS V13.00,2013-03-07 12:41:00,
2013-03-07 06:46:00,29.7,26.9,30.32,NNW,348,1.0,5.0,89,0.00,,SKC,0.00,VWS V13.00,2013-03-07 12:46:00,
2013-03-07 06:51:00,29.8,27.0,30.32,North,350,1.0,5.0,89,0.00,,SKC,0.00,VWS V13.00,2013-03-07 12:51:00,
2013-03-07 06:56:00,30.0,27.2,30.32,NNW,341,4.0,5.0,89,0.00,,SKC,0.00,VWS V13.00,2013-03-07 12:56:00,
2013-03-07 07:01:00,30.2,27.4,30.32,NNE,12,3.0,6.0,89,0.00,,SKC,0.00,VWS V13.00,2013-03-07 13:01:00,
2013-03-07 07:06:00,30.4,27.3,30.32,NNE,15,4.0,5.0,88,0.00,,SKC,0.00,VWS V13.00,2013-03-07 13:06:00,
2013-03-07 07:12:00,30.7,27.6,30.32,North,9,2.0,5.0,88,0.00,,SKC,0.00,VWS V13.00,2013-03-07 13:12:00,
2013-03-07 07:17:00,31.0,27.9,30.33,NNW,334,1.0,5.0,88,0.00,,SKC,0.00,VWS V13.00,2013-03-07 13:17:00,
2013-03-07 07:22:00,31.3,27.9,30.33,North,355,2.0,6.0,87,0.00,,SKC,0.00,VWS V13.00,2013-03-07 13:22:00,
2013-03-07 07:27:00,31.6,28.5,30.32,North,355,3.0,6.0,88,0.00,,SKC,0.00,VWS V13.00,2013-03-07 13:27:00,
2013-03-07 07:32:00,32.0,28.6,30.32,North,5,4.0,6.0,87,0.00,,SKC,0.00,VWS V13.00,2013-03-07 13:32:00,
2013-03-07 07:37:00,32.3,28.6,30.32,NE,44,6.0,7.0,86,0.00,,SKC,0.00,VWS V13.00,2013-03-07 13:37:00,
2013-03-07 07:42:00,32.5,29.1,30.33,NNE,17,4.0,7.0,87,0.00,,SKC,0.00,VWS V13.00,2013-03-07 13:42:00,
2013-03-07 07:47:00,32.5,28.8,30.32,NNE,26,5.0,9.0,86,0.00,,SKC,0.00,VWS V13.00,2013-03-07 13:47:00,
2013-03-07 07:52:00,32.4,28.7,30.32,NNE,33,5.0,9.0,86,0.00,,SKC,0.00,VWS V13.00,2013-03-07 13:52:00,
2013-03-07 07:57:00,32.4,29.0,30.32,NNE,17,4.0,9.0,87,0.00,,SKC,0.00,VWS V13.00,2013-03-07 13:57:00,
2013-03-07 08:02:00,32.6,29.5,30.32,NNE,22,5.0,9.0,88,0.00,,SKC,0.00,VWS V13.00,2013-03-07 14:02:00,
2013-03-07 08:07:00,33.2,30.3,30.32,NNE,28,4.0,7.0,89,0.00,,SKC,0.00,VWS V13.00,2013-03-07 14:07:00,
2013-03-07 08:12:00,33.5,29.8,30.33,North,5,4.0,10.0,86,0.00,,SKC,0.00,VWS V13.00,2013-03-07 14:12:00,
2013-03-07 08:17:00,33.7,30.0,30.33,NE,34,7.0,10.0,86,0.00,,SKC,0.00,VWS V13.00,2013-03-07 14:17:00,
2013-03-07 08:22:00,33.9,29.6,30.33,NE,44,9.0,10.0,84,0.00,,SKC,0.00,VWS V13.00,2013-03-07 14:22:00,
2013-03-07 08:27:00,33.9,29.6,30.33,ENE,60,8.0,11.0,84,0.00,,SKC,0.00,VWS V13.00,2013-03-07 14:27:00,
2013-03-07 08:32:00,34.2,30.2,30.33,NNE,27,5.0,5.0,85,0.00,,SKC,0.00,VWS V13.00,2013-03-07 14:32:00,
2013-03-07 08:37:00,34.9,30.9,30.33,NNE,28,7.0,10.0,85,0.00,,SKC,0.00,VWS V13.00,2013-03-07 14:37:00,
2013-03-07 08:42:00,35.0,30.1,30.33,NNE,26,5.0,12.0,82,0.00,,SKC,0.00,VWS V13.00,2013-03-07 14:42:00,
2013-03-07 08:47:00,35.2,30.6,30.33,NE,43,9.0,12.0,83,0.00,,SKC,0.00,VWS V13.00,2013-03-07 14:47:00,
2013-03-07 08:52:00,35.6,31.0,30.33,NE,46,7.0,12.0,83,0.00,,SKC,0.00,VWS V13.00,2013-03-07 14:52:00,
2013-03-07 08:57:00,35.7,30.5,30.33,NE,50,8.0,12.0,81,0.00,,SKC,0.00,VWS V13.00,2013-03-07 14:57:00,
2013-03-07 09:02:00,35.9,30.6,30.33,NNE,15,5.0,5.0,81,0.00,,SKC,0.00,VWS V13.00,2013-03-07 15:02:00,
2013-03-07 09:07:00,36.1,31.1,30.33,NNE,23,7.0,10.0,82,0.00,,SKC,0.00,VWS V13.00,2013-03-07 15:07:00,
2013-03-07 09:12:00,36.2,30.9,30.33,NNE,24,8.0,10.0,81,0.00,,SKC,0.00,VWS V13.00,2013-03-07 15:12:00,
2013-03-07 09:17:00,36.5,30.9,30.33,NNE,19,4.0,10.0,80,0.00,,SKC,0.00,VWS V13.00,2013-03-07 15:17:00,
2013-03-07 09:22:00,37.3,31.4,30.32,North,5,8.0,10.0,79,0.00,,SKC,0.00,VWS V13.00,2013-03-07 15:22:00,
2013-03-07 09:28:00,38.2,32.0,30.32,NE,51,9.0,10.0,78,0.00,,SKC,0.00,VWS V13.00,2013-03-07 15:28:00,
2013-03-07 09:33:00,38.4,31.5,30.32,ENE,64,10.0,11.0,76,0.00,,SKC,0.00,VWS V13.00,2013-03-07 15:33:00,
2013-03-07 09:38:00,38.0,31.4,30.32,North,350,8.0,11.0,77,0.00,,SKC,0.00,VWS V13.00,2013-03-07 15:38:00,
2013-03-07 09:43:00,38.0,31.1,30.32,ENE,58,4.0,11.0,76,0.00,,SKC,0.00,VWS V13.00,2013-03-07 15:43:00,
2013-03-07 09:48:00,38.8,32.5,30.32,North,355,3.0,11.0,78,0.00,,SKC,0.00,VWS V13.00,2013-03-07 15:48:00,
2013-03-07 09:53:00,39.4,31.8,30.32,NE,54,5.0,11.0,74,0.00,,SKC,0.00,VWS V13.00,2013-03-07 15:53:00,
2013-03-07 09:58:00,39.3,32.0,30.32,NNW,338,5.0,11.0,75,0.00,,SKC,0.00,VWS V13.00,2013-03-07 15:58:00,
2013-03-07 10:03:00,39.7,31.4,30.32,NNE,20,8.0,12.0,72,0.00,,SKC,0.00,VWS V13.00,2013-03-07 16:03:00,
2013-03-07 10:08:00,40.1,31.8,30.33,NE,38,2.0,12.0,72,0.00,,SKC,0.00,VWS V13.00,2013-03-07 16:08:00,
2013-03-07 10:13:00,40.1,32.2,30.32,NNE,32,9.0,12.0,73,0.00,,SKC,0.00,VWS V13.00,2013-03-07 16:13:00,
2013-03-07 10:18:00,40.4,31.8,30.33,NNE,17,5.0,12.0,71,0.00,,SKC,0.00,VWS V13.00,2013-03-07 16:18:00,
2013-03-07 10:23:00,41.0,32.0,30.32,North,5,10.0,12.0,70,0.00,,SKC,0.00,VWS V13.00,2013-03-07 16:23:00,
2013-03-07 10:28:00,41.3,31.5,30.32,NNE,22,2.0,12.0,68,0.00,,SKC,0.00,VWS V13.00,2013-03-07 16:28:00,
2013-03-07 10:33:00,41.2,31.1,30.32,NNW,337,4.0,6.0,67,0.00,,SKC,0.00,VWS V13.00,2013-03-07 16:33:00,
2013-03-07 10:38:00,41.6,31.5,30.32,ENE,61,5.0,12.0,67,0.00,,SKC,0.00,VWS V13.00,2013-03-07 16:38:00,
2013-03-07 10:43:00,41.7,31.2,30.32,North,360,2.0,12.0,66,0.00,,SKC,0.00,VWS V13.00,2013-03-07 16:43:00,
2013-03-07 10:48:00,42.3,31.0,30.32,NE,46,3.0,12.0,64,0.00,,SKC,0.00,VWS V13.00,2013-03-07 16:48:00,
2013-03-07 10:53:00,43.4,32.8,30.32,ENE,69,6.0,12.0,66,0.00,,SKC,0.00,VWS V13.00,2013-03-07 16:53:00,
2013-03-07 10:58:00,43.5,32.2,30.31,NNE,31,9.0,12.0,64,0.00,,SKC,0.00,VWS V13.00,2013-03-07 16:58:00,
2013-03-07 11:02:00,43.3,31.6,30.31,North,11,5.0,5.0,63,0.00,,SKC,0.00,VWS V13.00,2013-03-07 17:02:00,
2013-03-07 11:08:00,43.1,31.8,30.31,East,94,3.0,8.0,64,0.00,,SKC,0.00,VWS V13.00,2013-03-07 17:08:00,
2013-03-07 11:13:00,43.3,31.6,30.30,North,355,2.0,8.0,63,0.00,,SKC,0.00,VWS V13.00,2013-03-07 17:13:00,
2013-03-07 11:18:00,44.0,32.6,30.31,North,360,7.0,10.0,64,0.00,,SKC,0.00,VWS V13.00,2013-03-07 17:18:00,
2013-03-07 11:23:00,44.6,32.8,30.31,NE,49,7.0,10.0,63,0.00,,SKC,0.00,VWS V13.00,2013-03-07 17:23:00,
2013-03-07 11:28:00,45.0,31.5,30.31,NW,306,0.0,10.0,59,0.00,,SKC,0.00,VWS V13.00,2013-03-07 17:28:00,
2013-03-07 11:33:00,45.2,32.2,30.31,North,9,8.0,9.0,60,0.00,,SKC,0.00,VWS V13.00,2013-03-07 17:33:00,
2013-03-07 11:38:00,45.0,32.0,30.31,North,349,6.0,10.0,60,0.00,,SKC,0.00,VWS V13.00,2013-03-07 17:38:00,
2013-03-07 11:43:00,44.9,32.3,30.30,WNW,296,1.0,10.0,61,0.00,,SKC,0.00,VWS V13.00,2013-03-07 17:43:00,
2013-03-07 11:48:00,45.5,32.4,30.30,North,350,6.0,10.0,60,0.00,,SKC,0.00,VWS V13.00,2013-03-07 17:48:00,
2013-03-07 11:53:00,45.6,32.1,30.30,ENE,72,7.0,11.0,59,0.00,,SKC,0.00,VWS V13.00,2013-03-07 17:53:00,
2013-03-07 11:58:00,46.2,33.5,30.30,NNE,19,6.0,12.0,61,0.00,,SKC,0.00,VWS V13.00,2013-03-07 17:58:00,
2013-03-07 12:03:00,47.1,32.7,30.30,NE,34,5.0,7.0,57,0.00,,SKC,0.00,VWS V13.00,2013-03-07 18:03:00,
2013-03-07 12:08:00,47.3,33.7,30.30,WNW,292,4.0,8.0,59,0.00,,SKC,0.00,VWS V13.00,2013-03-07 18:08:00,
2013-03-07 12:13:00,47.7,32.8,30.29,NNW,332,4.0,9.0,56,0.00,,SKC,0.00,VWS V13.00,2013-03-07 18:13:00,
2013-03-07 12:18:00,47.6,33.1,30.29,NE,39,5.0,10.0,57,0.00,,SKC,0.00,VWS V13.00,2013-03-07 18:18:00,
2013-03-07 12:23:00,47.6,32.7,30.28,NE,49,6.0,11.0,56,0.00,,SKC,0.00,VWS V13.00,2013-03-07 18:23:00,
2013-03-07 12:28:00,48.3,34.2,30.28,NW,325,1.0,11.0,58,0.00,,SKC,0.00,VWS V13.00,2013-03-07 18:28:00,
2013-03-07 12:33:00,48.4,33.0,30.28,NNW,333,6.0,10.0,55,0.00,,SKC,0.00,VWS V13.00,2013-03-07 18:33:00,
2013-03-07 12:38:00,48.7,33.3,30.27,NNW,333,4.0,10.0,55,0.00,,SKC,0.00,VWS V13.00,2013-03-07 18:38:00,
2013-03-07 12:44:00,48.7,32.3,30.27,North,355,5.0,10.0,53,0.00,,SKC,0.00,VWS V13.00,2013-03-07 18:44:00,
2013-03-07 12:49:00,49.0,33.1,30.27,North,355,8.0,12.0,54,0.00,,SKC,0.00,VWS V13.00,2013-03-07 18:49:00,
2013-03-07 12:54:00,48.8,33.4,30.27,WNW,301,4.0,12.0,55,0.00,,SKC,0.00,VWS V13.00,2013-03-07 18:54:00,
2013-03-07 12:59:00,49.1,33.7,30.26,NW,326,9.0,12.0,55,0.00,,SKC,0.00,VWS V13.00,2013-03-07 18:59:00,
2013-03-07 13:04:00,49.2,32.3,30.27,North,5,9.0,11.0,52,0.00,,SKC,0.00,VWS V13.00,2013-03-07 19:04:00,
2013-03-07 13:09:00,49.3,32.4,30.26,East,96,4.0,11.0,52,0.00,,SKC,0.00,VWS V13.00,2013-03-07 19:09:00,
2013-03-07 13:14:00,49.3,34.3,30.25,NNE,24,5.0,11.0,56,0.00,,SKC,0.00,VWS V13.00,2013-03-07 19:14:00,
2013-03-07 13:19:00,49.7,33.3,30.25,ENE,65,1.0,11.0,53,0.00,,SKC,0.00,VWS V13.00,2013-03-07 19:19:00,
2013-03-07 13:24:00,49.8,33.4,30.25,NW,307,5.0,11.0,53,0.00,,SKC,0.00,VWS V13.00,2013-03-07 19:24:00,
2013-03-07 13:29:00,49.9,33.9,30.24,WNW,287,6.0,11.0,54,0.00,,SKC,0.00,VWS V13.00,2013-03-07 19:29:00,
2013-03-07 13:34:00,50.4,33.9,30.25,North,9,1.0,7.0,53,0.00,,SKC,0.00,VWS V13.00,2013-03-07 19:34:00,
2013-03-07 13:39:00,50.6,34.1,30.24,North,360,3.0,8.0,53,0.00,,SKC,0.00,VWS V13.00,2013-03-07 19:39:00,
2013-03-07 13:44:00,51.1,33.6,30.24,NW,323,6.0,9.0,51,0.00,,SKC,0.00,VWS V13.00,2013-03-07 19:44:00,
2013-03-07 13:49:00,51.0,33.5,30.24,North,9,4.0,9.0,51,0.00,,SKC,0.00,VWS V13.00,2013-03-07 19:49:00,
2013-03-07 13:54:00,51.4,33.4,30.24,NNE,26,2.0,11.0,50,0.00,,SKC,0.00,VWS V13.00,2013-03-07 19:54:00,
2013-03-07 13:59:00,51.7,34.7,30.25,NNE,30,5.0,11.0,52,0.00,,SKC,0.00,VWS V13.00,2013-03-07 19:59:00,
2013-03-07 14:04:00,51.7,33.2,30.25,NNE,26,8.0,12.0,49,0.00,,SKC,0.00,VWS V13.00,2013-03-07 20:04:00,
2013-03-07 14:09:00,51.5,33.0,30.25,NNW,344,9.0,12.0,49,0.00,,SKC,0.00,VWS V13.00,2013-03-07 20:09:00,
2013-03-07 14:14:00,51.7,34.2,30.25,North,355,6.0,12.0,51,0.00,,SKC,0.00,VWS V13.00,2013-03-07 20:14:00,
2013-03-07 14:19:00,51.8,33.8,30.25,WNW,290,6.0,12.0,50,0.00,,SKC,0.00,VWS V13.00,2013-03-07 20:19:00,
2013-03-07 14:24:00,51.8,33.3,30.25,NNE,22,3.0,12.0,49,0.00,,SKC,0.00,VWS V13.00,2013-03-07 20:24:00,
2013-03-07 14:29:00,51.8,34.3,30.25,NW,318,9.0,13.0,51,0.00,,SKC,0.00,VWS V13.00,2013-03-07 20:29:00,
2013-03-07 14:34:00,51.6,33.6,30.25,WNW,294,9.0,10.0,50,0.00,,SKC,0.00,VWS V13.00,2013-03-07 20:34:00,
2013-03-07 14:39:00,51.8,34.3,30.25,NW,325,4.0,11.0,51,0.00,,SKC,0.00,VWS V13.00,2013-03-07 20:39:00,
2013-03-07 14:44:00,51.9,34.4,30.25,NNW,335,4.0,11.0,51,0.00,,SKC,0.00,VWS V13.00,2013-03-07 20:44:00,
2013-03-07 14:49:00,52.3,34.2,30.25,NNW,346,7.0,11.0,50,0.00,,SKC,0.00,VWS V13.00,2013-03-07 20:49:00,
2013-03-07 14:54:00,52.3,33.7,30.25,WNW,294,5.0,11.0,49,0.00,,SKC,0.00,VWS V13.00,2013-03-07 20:54:00,
2013-03-07 14:59:00,52.2,34.1,30.25,NW,311,9.0,11.0,50,0.00,,SKC,0.00,VWS V13.00,2013-03-07 20:59:00,
2013-03-07 15:04:00,52.3,33.2,30.25,WNW,296,8.0,11.0,48,0.00,,SKC,0.00,VWS V13.00,2013-03-07 21:04:00,
2013-03-07 15:09:00,52.0,34.0,30.25,NW,326,4.0,13.0,50,0.00,,SKC,0.00,VWS V13.00,2013-03-07 21:09:00,
2013-03-07 15:14:00,51.9,33.4,30.26,NW,312,9.0,13.0,49,0.00,,SKC,0.00,VWS V13.00,2013-03-07 21:14:00,
2013-03-07 15:19:00,51.8,32.8,30.25,North,350,8.0,13.0,48,0.00,,SKC,0.00,VWS V13.00,2013-03-07 21:19:00,
2013-03-07 15:24:00,51.9,33.4,30.25,NW,311,10.0,13.0,49,0.00,,SKC,0.00,VWS V13.00,2013-03-07 21:24:00,
2013-03-07 15:29:00,52.1,34.0,30.25,WNW,294,10.0,13.0,50,0.00,,SKC,0.00,VWS V13.00,2013-03-07 21:29:00,
2013-03-07 15:34:00,52.1,34.0,30.25,NNW,331,6.0,9.0,50,0.00,,SKC,0.00,VWS V13.00,2013-03-07 21:34:00,
2013-03-07 15:39:00,52.1,33.0,30.25,NNW,344,8.0,11.0,48,0.00,,SKC,0.00,VWS V13.00,2013-03-07 21:39:00,
2013-03-07 15:44:00,51.9,33.4,30.25,NNW,335,6.0,11.0,49,0.00,,SKC,0.00,VWS V13.00,2013-03-07 21:44:00,
2013-03-07 15:49:00,52.0,33.5,30.25,NW,319,6.0,11.0,49,0.00,,SKC,0.00,VWS V13.00,2013-03-07 21:49:00,
2013-03-07 15:54:00,52.0,34.0,30.25,NW,321,8.0,12.0,50,0.00,,SKC,0.00,VWS V13.00,2013-03-07 21:54:00,
2013-03-07 15:59:00,51.8,33.3,30.25,North,355,6.0,12.0,49,0.00,,SKC,0.00,VWS V13.00,2013-03-07 21:59:00,
2013-03-07 16:04:00,52.0,34.0,30.25,WNW,301,9.0,10.0,50,0.00,,SKC,0.00,VWS V13.00,2013-03-07 22:04:00,
2013-03-07 16:09:00,51.8,33.3,30.25,NNW,328,4.0,11.0,49,0.00,,SKC,0.00,VWS V13.00,2013-03-07 22:09:00,
2013-03-07 16:14:00,51.8,33.3,30.25,NNW,328,7.0,11.0,49,0.00,,SKC,0.00,VWS V13.00,2013-03-07 22:14:00,
2013-03-07 16:19:00,51.7,33.2,30.25,NW,313,7.0,11.0,49,0.00,,SKC,0.00,VWS V13.00,2013-03-07 22:19:00,
2013-03-07 16:25:00,51.7,34.2,30.25,NW,305,7.0,11.0,51,0.00,,SKC,0.00,VWS V13.00,2013-03-07 22:25:00,
2013-03-07 16:30:00,51.5,33.5,30.25,NW,311,4.0,11.0,50,0.00,,SKC,0.00,VWS V13.00,2013-03-07 22:30:00,
2013-03-07 16:35:00,51.5,33.5,30.25,NW,311,6.0,9.0,50,0.00,,SKC,0.00,VWS V13.00,2013-03-07 22:35:00,
2013-03-07 16:40:00,51.3,33.3,30.25,NNW,346,6.0,10.0,50,0.00,,SKC,0.00,VWS V13.00,2013-03-07 22:40:00,
2013-03-07 16:45:00,51.2,33.7,30.25,WNW,302,6.0,10.0,51,0.00,,SKC,0.00,VWS V13.00,2013-03-07 22:45:00,
2013-03-07 16:50:00,51.0,33.5,30.25,NW,323,6.0,10.0,51,0.00,,SKC,0.00,VWS V13.00,2013-03-07 22:50:00,
2013-03-07 16:55:00,50.9,33.9,30.26,NW,321,4.0,10.0,52,0.00,,SKC,0.00,VWS V13.00,2013-03-07 22:55:00,
2013-03-07 17:00:00,50.6,33.2,30.25,NW,304,5.0,10.0,51,0.00,,SKC,0.00,VWS V13.00,2013-03-07 23:00:00,
2013-03-07 17:05:00,50.4,33.9,30.25,WNW,300,5.0,8.0,53,0.00,,SKC,0.00,VWS V13.00,2013-03-07 23:05:00,
2013-03-07 17:10:00,50.1,33.7,30.25,WNW,303,5.0,8.0,53,0.00,,SKC,0.00,VWS V13.00,2013-03-07 23:10:00,
2013-03-07 17:15:00,49.8,33.8,30.26,WNW,297,7.0,9.0,54,0.00,,SKC,0.00,VWS V13.00,2013-03-07 23:15:00,
2013-03-07 17:20:00,49.5,34.0,30.26,NW,308,4.0,9.0,55,0.00,,SKC,0.00,VWS V13.00,2013-03-07 23:20:00,
2013-03-07 17:25:00,49.1,33.7,30.26,NW,310,4.0,9.0,55,0.00,,SKC,0.00,VWS V13.00,2013-03-07 23:25:00,
2013-03-07 17:30:00,48.6,33.6,30.26,NW,317,2.0,9.0,56,0.00,,SKC,0.00,VWS V13.00,2013-03-07 23:30:00,
2013-03-07 17:35:00,48.1,33.6,30.26,WNW,302,4.0,7.0,57,0.00,,SKC,0.00,VWS V13.00,2013-03-07 23:35:00,
2013-03-07 17:40:00,47.7,33.7,30.26,NW,304,5.0,7.0,58,0.00,,SKC,0.00,VWS V13.00,2013-03-07 23:40:00,
2013-03-07 17:45:00,47.2,33.6,30.27,WNW,300,5.0,7.0,59,0.00,,SKC,0.00,VWS V13.00,2013-03-07 23:45:00,
2013-03-07 17:50:00,46.8,33.7,30.27,NW,306,4.0,7.0,60,0.00,,SKC,0.00,VWS V13.00,2013-03-07 23:50:00,
2013-03-07 17:55:00,46.5,33.8,30.27,NNW,332,4.0,7.0,61,0.00,,SKC,0.00,VWS V13.00,2013-03-07 23:55:00,
2013-03-07 18:00:00,46.2,33.5,30.28,NW,319,2.0,7.0,61,0.00,,SKC,0.00,VWS V13.00,2013-03-08 00:00:00,
2013-03-07 18:05:00,46.0,33.7,30.28,NNW,335,2.0,4.0,62,0.00,,SKC,0.00,VWS V13.00,2013-03-08 00:05:00,
2013-03-07 18:10:00,45.8,33.5,30.28,NNW,333,1.0,6.0,62,0.00,,SKC,0.00,VWS V13.00,2013-03-08 00:10:00,
2013-03-07 18:15:00,45.7,33.8,30.28,NNW,330,4.0,7.0,63,0.00,,SKC,0.00,VWS V13.00,2013-03-08 00:15:00,
2013-03-07 18:20:00,45.6,33.8,30.28,NW,321,6.0,7.0,63,0.00,,SKC,0.00,VWS V13.00,2013-03-08 00:20:00,
2013-03-07 18:25:00,45.6,33.8,30.28,NW,324,4.0,8.0,63,0.00,,SKC,0.00,VWS V13.00,2013-03-08 00:25:00,
2013-03-07 18:30:00,45.4,34.0,30.29,NNW,348,4.0,8.0,64,0.00,,SKC,0.00,VWS V13.00,2013-03-08 00:30:00,
2013-03-07 18:35:00,45.2,33.8,30.29,NNW,342,4.0,6.0,64,0.00,,SKC,0.00,VWS V13.00,2013-03-08 00:35:00,
2013-03-07 18:40:00,45.1,33.7,30.29,NNW,328,7.0,9.0,64,0.00,,SKC,0.00,VWS V13.00,2013-03-08 00:40:00,
2013-03-07 18:45:00,45.0,33.6,30.29,NNW,341,5.0,9.0,64,0.00,,SKC,0.00,VWS V13.00,2013-03-08 00:45:00,
2013-03-07 18:50:00,44.7,33.3,30.29,NW,322,3.0,9.0,64,0.00,,SKC,0.00,VWS V13.00,2013-03-08 00:50:00,
2013-03-07 18:55:00,44.5,33.5,30.29,NNW,344,2.0,9.0,65,0.00,,SKC,0.00,VWS V13.00,2013-03-08 00:55:00,
2013-03-07 19:00:00,44.2,33.6,30.29,NNW,336,2.0,9.0,66,0.00,,SKC,0.00,VWS V13.00,2013-03-08 01:00:00,
2013-03-07 19:05:00,43.9,33.3,30.28,NNW,338,4.0,5.0,66,0.00,,SKC,0.00,VWS V13.00,2013-03-08 01:05:00,
2013-03-07 19:10:00,43.7,33.5,30.28,North,355,4.0,6.0,67,0.00,,SKC,0.00,VWS V13.00,2013-03-08 01:10:00,
2013-03-07 19:15:00,43.4,33.2,30.29,North,350,4.0,6.0,67,0.00,,SKC,0.00,VWS V13.00,2013-03-08 01:15:00,
2013-03-07 19:20:00,43.2,33.4,30.29,NW,317,4.0,6.0,68,0.00,,SKC,0.00,VWS V13.00,2013-03-08 01:20:00,
2013-03-07 19:25:00,43.1,33.3,30.28,NW,320,1.0,6.0,68,0.00,,SKC,0.00,VWS V13.00,2013-03-08 01:25:00,
2013-03-07 19:30:00,42.9,33.4,30.28,NNW,327,1.0,6.0,69,0.00,,SKC,0.00,VWS V13.00,2013-03-08 01:30:00,
2013-03-07 19:35:00,42.7,33.2,30.28,NNW,327,0.0,0.0,69,0.00,,SKC,0.00,VWS V13.00,2013-03-08 01:35:00,
2013-03-07 19:40:00,42.5,33.4,30.28,NW,321,2.0,2.0,70,0.00,,SKC,0.00,VWS V13.00,2013-03-08 01:40:00,
2013-03-07 19:45:00,42.4,33.3,30.28,NW,311,0.0,4.0,70,0.00,,SKC,0.00,VWS V13.00,2013-03-08 01:45:00,
2013-03-07 19:50:00,42.2,33.1,30.28,NW,307,1.0,4.0,70,0.00,,SKC,0.00,VWS V13.00,2013-03-08 01:50:00,
2013-03-07 19:55:00,42.1,33.4,30.29,NW,307,1.0,4.0,71,0.00,,SKC,0.00,VWS V13.00,2013-03-08 01:55:00,
2013-03-07 20:00:00,41.9,33.5,30.29,NW,307,0.0,4.0,72,0.00,,SKC,0.00,VWS V13.00,2013-03-08 02:00:00,
2013-03-07 20:05:00,41.7,33.3,30.28,NNW,327,0.0,3.0,72,0.00,,SKC,0.00,VWS V13.00,2013-03-08 02:05:00,
2013-03-07 20:10:00,41.6,33.3,30.28,NNW,327,0.0,3.0,72,0.00,,SKC,0.00,VWS V13.00,2013-03-08 02:10:00,
2013-03-07 20:15:00,41.4,33.4,30.28,NNW,327,0.0,3.0,73,0.00,,SKC,0.00,VWS V13.00,2013-03-08 02:15:00,
2013-03-07 20:20:00,41.1,33.1,30.29,NNW,327,0.0,3.0,73,0.00,,SKC,0.00,VWS V13.00,2013-03-08 02:20:00,
2013-03-07 20:25:00,40.7,33.1,30.28,NNW,327,0.0,3.0,74,0.00,,SKC,0.00,VWS V13.00,2013-03-08 02:25:00,
2013-03-07 20:30:00,40.3,33.3,30.28,NNW,327,0.0,3.0,76,0.00,,SKC,0.00,VWS V13.00,2013-03-08 02:30:00,
2013-03-07 20:35:00,40.0,33.1,30.28,NNW,327,0.0,0.0,76,0.00,,SKC,0.00,VWS V13.00,2013-03-08 02:35:00,
2013-03-07 20:40:00,39.7,33.1,30.28,NNW,327,0.0,0.0,77,0.00,,SKC,0.00,VWS V13.00,2013-03-08 02:40:00,
2013-03-07 20:45:00,39.5,32.9,30.28,NNW,327,0.0,0.0,77,0.00,,SKC,0.00,VWS V13.00,2013-03-08 02:45:00,
2013-03-07 20:50:00,39.4,32.8,30.28,NNW,327,0.0,2.0,77,0.00,,SKC,0.00,VWS V13.00,2013-03-08 02:50:00,
2013-03-07 20:55:00,39.3,33.0,30.29,NNW,327,0.0,2.0,78,0.00,,SKC,0.00,VWS V13.00,2013-03-08 02:55:00,
2013-03-07 21:00:00,39.0,32.7,30.28,North,360,1.0,2.0,78,0.00,,SKC,0.00,VWS V13.00,2013-03-08 03:00:00,
2013-03-07 21:05:00,38.7,32.8,30.28,North,360,1.0,2.0,79,0.00,,SKC,0.00,VWS V13.00,2013-03-08 03:05:00,
2013-03-07 21:10:00,38.6,32.7,30.28,North,360,0.0,2.0,79,0.00,,SKC,0.00,VWS V13.00,2013-03-08 03:10:00,
2013-03-07 21:15:00,38.4,32.8,30.28,North,5,1.0,2.0,80,0.00,,SKC,0.00,VWS V13.00,2013-03-08 03:15:00,
2013-03-07 21:20:00,38.3,32.7,30.28,NNE,27,2.0,4.0,80,0.00,,SKC,0.00,VWS V13.00,2013-03-08 03:20:00,
2013-03-07 21:25:00,38.2,32.9,30.28,NNE,32,0.0,4.0,81,0.00,,SKC,0.00,VWS V13.00,2013-03-08 03:25:00,
2013-03-07 21:30:00,37.8,32.5,30.28,NNE,32,0.0,4.0,81,0.00,,SKC,0.00,VWS V13.00,2013-03-08 03:30:00,
2013-03-07 21:35:00,37.5,32.2,30.28,NE,34,1.0,2.0,81,0.00,,SKC,0.00,VWS V13.00,2013-03-08 03:35:00,
2013-03-07 21:40:00,37.5,32.5,30.28,NE,35,2.0,5.0,82,0.00,,SKC,0.00,VWS V13.00,2013-03-08 03:40:00,
2013-03-07 21:45:00,37.5,32.5,30.28,NE,49,2.0,5.0,82,0.00,,SKC,0.00,VWS V13.00,2013-03-08 03:45:00,
2013-03-07 21:50:00,37.5,32.5,30.28,ENE,62,2.0,6.0,82,0.00,,SKC,0.00,VWS V13.00,2013-03-08 03:50:00,
2013-03-07 21:55:00,37.5,32.5,30.27,NE,55,2.0,6.0,82,0.00,,SKC,0.00,VWS V13.00,2013-03-08 03:55:00,
2013-03-07 22:00:00,37.5,32.2,30.27,NE,42,2.0,6.0,81,0.00,,SKC,0.00,VWS V13.00,2013-03-08 04:00:00,
2013-03-07 22:05:00,37.4,31.8,30.27,NE,43,0.0,2.0,80,0.00,,SKC,0.00,VWS V13.00,2013-03-08 04:05:00,
2013-03-07 22:10:00,37.2,31.9,30.27,NE,36,3.0,4.0,81,0.00,,SKC,0.00,VWS V13.00,2013-03-08 04:10:00,
2013-03-07 22:15:00,37.3,31.7,30.27,NE,37,2.0,4.0,80,0.00,,SKC,0.00,VWS V13.00,2013-03-08 04:15:00,
2013-03-07 22:20:00,37.0,31.7,30.27,NNE,31,2.0,5.0,81,0.00,,SKC,0.00,VWS V13.00,2013-03-08 04:20:00,
2013-03-07 22:25:00,36.9,31.6,30.27,NE,45,3.0,5.0,81,0.00,,SKC,0.00,VWS V13.00,2013-03-08 04:25:00,
2013-03-07 22:30:00,36.8,31.5,30.27,NNE,32,3.0,5.0,81,0.00,,SKC,0.00,VWS V13.00,2013-03-08 04:30:00,
2013-03-07 22:35:00,36.8,31.5,30.27,NNE,24,3.0,5.0,81,0.00,,SKC,0.00,VWS V13.00,2013-03-08 04:35:00,
2013-03-07 22:40:00,36.9,31.6,30.27,NNE,27,3.0,6.0,81,0.00,,SKC,0.00,VWS V13.00,2013-03-08 04:40:00,
2013-03-07 22:45:00,37.1,31.5,30.27,NNE,28,2.0,6.0,80,0.00,,SKC,0.00,VWS V13.00,2013-03-08 04:45:00,
2013-03-07 22:50:00,36.9,31.6,30.27,NNE,28,6.0,7.0,81,0.00,,SKC,0.00,VWS V13.00,2013-03-08 04:50:00,
2013-03-07 22:55:00,37.0,31.7,30.27,NE,36,6.0,8.0,81,0.00,,SKC,0.00,VWS V13.00,2013-03-08 04:55:00,
2013-03-07 23:00:00,37.0,31.7,30.27,NE,46,5.0,8.0,81,0.00,,SKC,0.00,VWS V13.00,2013-03-08 05:00:00,
2013-03-07 23:01:00,36.9,31.6,30.27,NE,41,4.0,8.0,81,0.00,,SKC,0.00,VWS V13.00,2013-03-08 05:01:00,
2013-03-07 23:06:00,36.6,31.3,30.27,NE,38,3.0,5.0,81,0.00,,SKC,0.00,VWS V13.00,2013-03-08 05:06:00,
2013-03-07 23:11:00,36.7,31.4,30.27,NE,42,5.0,6.0,81,0.00,,SKC,0.00,VWS V13.00,2013-03-08 05:11:00,
2013-03-07 23:16:00,36.5,31.2,30.27,NE,41,6.0,6.0,81,0.00,,SKC,0.00,VWS V13.00,2013-03-08 05:16:00,
2013-03-07 23:21:00,36.3,31.3,30.27,NE,44,4.0,7.0,82,0.00,,SKC,0.00,VWS V13.00,2013-03-08 05:21:00,
2013-03-07 23:26:00,36.2,31.2,30.27,NE,41,5.0,7.0,82,0.00,,SKC,0.00,VWS V13.00,2013-03-08 05:26:00,
2013-03-07 23:31:00,36.0,31.0,30.27,NE,40,6.0,7.0,82,0.00,,SKC,0.00,VWS V13.00,2013-03-08 05:31:00,
2013-03-07 23:36:00,36.1,31.1,30.27,NE,46,5.0,6.0,82,0.00,,SKC,0.00,VWS V13.00,2013-03-08 05:36:00,
2013-03-07 23:41:00,36.1,31.1,30.28,NE,37,4.0,8.0,82,0.00,,SKC,0.00,VWS V13.00,2013-03-08 05:41:00,
2013-03-07 23:46:00,36.1,31.1,30.27,NE,34,5.0,8.0,82,0.00,,SKC,0.00,VWS V13.00,2013-03-08 05:46:00,
2013-03-07 23:51:00,35.9,31.0,30.28,NE,44,5.0,8.0,82,0.00,,SKC,0.00,VWS V13.00,2013-03-08 05:51:00,
2013-03-07 23:56:00,35.4,30.8,30.28,NE,43,5.0,8.0,83,0.00,,SKC,0.00,VWS V13.00,2013-03-08 05:56:00,